Time;durP1;ratioP1;P1;durP2;ratioP2;P2;SDS_P1;SDS_P2;PMS_P1;PMS_P2;Temp;Humidity;BMP_temperature;BMP_pressure;BME280_temperature;BME280_humidity;BME280_pressure;Samples;Min_cycle;Max_cycle;Signal;HPM_P1;HPM_P2
2023/12/30 00:01:46;;;;;;;3.43;1.70;;;10.40;99.90;;;;;;5053699;28;20225;-60
2023/12/30 00:04:13;;;;;;;3.50;1.60;;;10.60;99.90;;;;;;5053758;28;20288;-60
2023/12/30 00:06:40;;;;;;;1.50;1.20;;;10.70;99.90;;;;;;5054160;28;20210;-60
2023/12/30 00:09:07;;;;;;;2.97;1.37;;;10.90;99.90;;;;;;5053866;28;20221;-60
2023/12/30 00:11:35;;;;;;;2.57;1.57;;;11.00;99.90;;;;;;5053636;28;20230;-60
2023/12/30 00:14:02;;;;;;;1.67;1.40;;;11.10;99.90;;;;;;5053778;28;20206;-59
2023/12/30 00:16:29;;;;;;;2.60;1.40;;;11.30;99.90;;;;;;5053318;28;20198;-61
2023/12/30 00:18:56;;;;;;;4.07;1.90;;;11.40;99.90;;;;;;5053699;28;20209;-59
2023/12/30 00:21:23;;;;;;;1.23;1.13;;;11.50;99.90;;;;;;5053423;28;20275;-60
2023/12/30 00:23:50;;;;;;;2.43;1.70;;;11.50;99.90;;;;;;5053677;28;20201;-59
2023/12/30 00:26:20;;;;;;;1.93;1.20;;;11.60;99.90;;;;;;5053741;28;20228;-59
2023/12/30 00:28:48;;;;;;;1.53;1.07;;;11.60;99.90;;;;;;5053576;28;20711;-59
2023/12/30 00:31:23;;;;;;;4.57;1.40;;;11.70;99.90;;;;;;5037101;28;20228;-59
2023/12/30 00:33:50;;;;;;;1.80;1.20;;;11.80;99.90;;;;;;5053287;28;20662;-60
2023/12/30 00:36:16;;;;;;;1.97;1.50;;;11.90;99.90;;;;;;5037593;28;20293;-59
2023/12/30 00:38:43;;;;;;;2.03;1.40;;;11.90;99.90;;;;;;5053507;28;20209;-59
2023/12/30 00:41:10;;;;;;;1.70;1.27;;;11.90;99.90;;;;;;5052843;28;20258;-59
2023/12/30 00:43:38;;;;;;;1.90;1.40;;;11.90;99.90;;;;;;5053060;28;20206;-59
2023/12/30 00:46:06;;;;;;;1.40;1.23;;;12.00;99.90;;;;;;5052967;28;20683;-58
2023/12/30 00:48:33;;;;;;;1.67;1.27;;;12.00;99.90;;;;;;5052952;28;20734;-59
2023/12/30 00:51:00;;;;;;;1.30;1.10;;;12.10;99.90;;;;;;5052741;28;20225;-64
2023/12/30 00:53:27;;;;;;;1.43;1.20;;;12.10;99.90;;;;;;5052895;28;20220;-59
2023/12/30 00:55:54;;;;;;;1.50;1.17;;;12.20;99.90;;;;;;5052730;28;20729;-59
2023/12/30 00:58:21;;;;;;;1.37;1.23;;;12.20;99.90;;;;;;5052975;28;20288;-59
2023/12/30 01:00:47;;;;;;;1.77;1.23;;;12.20;99.90;;;;;;5052967;28;20283;-61
2023/12/30 01:03:15;;;;;;;2.67;1.40;;;12.30;99.90;;;;;;5052398;28;20216;-59
2023/12/30 01:05:42;;;;;;;1.93;1.33;;;12.20;99.90;;;;;;5052889;28;20224;-59
2023/12/30 01:08:09;;;;;;;1.77;1.20;;;12.20;99.90;;;;;;5052672;28;20221;-58
2023/12/30 01:10:35;;;;;;;3.50;1.30;;;12.30;99.90;;;;;;5052702;28;20275;-59
2023/12/30 01:13:02;;;;;;;1.50;1.20;;;12.30;99.90;;;;;;5052389;28;20232;-59
2023/12/30 01:15:29;;;;;;;1.57;1.23;;;11.90;99.90;;;;;;5052748;28;20289;-59
2023/12/30 01:17:56;;;;;;;1.73;1.20;;;12.30;99.90;;;;;;5052595;28;20205;-59
2023/12/30 01:20:24;;;;;;;4.10;1.43;;;12.30;99.90;;;;;;5052396;28;20201;-59
2023/12/30 01:22:50;;;;;;;1.30;1.07;;;12.30;99.90;;;;;;5052494;28;20604;-59
2023/12/30 01:25:17;;;;;;;1.70;1.20;;;12.30;99.90;;;;;;5052429;28;20641;-59
2023/12/30 01:27:44;;;;;;;2.17;1.40;;;12.30;99.90;;;;;;5052261;28;20624;-60
2023/12/30 01:30:11;;;;;;;1.90;1.23;;;12.30;99.90;;;;;;5051549;28;20201;-59
2023/12/30 01:32:37;;;;;;;4.07;1.37;;;12.20;99.90;;;;;;5052234;28;20648;-59
2023/12/30 01:35:05;;;;;;;1.47;1.30;;;12.20;99.90;;;;;;5052146;28;20205;-59
2023/12/30 01:37:34;;;;;;;1.77;1.33;;;12.20;99.90;;;;;;5052566;28;20206;-59
2023/12/30 01:40:01;;;;;;;2.17;1.10;;;12.20;99.90;;;;;;5051663;28;20209;-59
2023/12/30 01:42:27;;;;;;;1.40;1.20;;;12.20;99.90;;;;;;5051764;28;20710;-59
2023/12/30 01:44:54;;;;;;;1.63;1.30;;;12.20;99.90;;;;;;5051889;28;20209;-59
2023/12/30 01:47:21;;;;;;;1.97;1.40;;;12.30;99.90;;;;;;5051777;28;20205;-59
2023/12/30 01:49:48;;;;;;;1.33;1.23;;;12.30;99.90;;;;;;5051847;28;20232;-59
2023/12/30 01:52:15;;;;;;;1.40;1.20;;;12.30;99.90;;;;;;5051485;28;20222;-59
2023/12/30 01:54:43;;;;;;;1.67;1.20;;;12.20;99.90;;;;;;5051598;28;20635;-59
2023/12/30 01:57:11;;;;;;;1.30;1.20;;;12.30;99.90;;;;;;5051749;28;20205;-58
2023/12/30 01:59:39;;;;;;;4.00;1.70;;;12.30;99.90;;;;;;5051773;28;20202;-59
2023/12/30 02:02:05;;;;;;;1.87;1.60;;;12.30;99.90;;;;;;5051307;28;20232;-59
2023/12/30 02:04:32;;;;;;;2.07;1.50;;;12.30;99.90;;;;;;5051473;28;20206;-58
2023/12/30 02:06:59;;;;;;;2.77;1.33;;;12.20;99.90;;;;;;5051424;28;20302;-59
2023/12/30 02:09:26;;;;;;;1.73;1.27;;;12.20;99.90;;;;;;5051606;28;20221;-59
2023/12/30 02:11:54;;;;;;;1.53;1.43;;;12.20;99.90;;;;;;5051631;28;20651;-59
2023/12/30 02:14:24;;;;;;;1.67;1.40;;;12.10;99.90;;;;;;5051564;28;20198;-59
2023/12/30 02:16:51;;;;;;;2.30;1.37;;;12.10;99.90;;;;;;5051497;28;20205;-59
2023/12/30 02:19:18;;;;;;;1.83;1.23;;;12.10;99.90;;;;;;5034963;28;20251;-58
2023/12/30 02:21:44;;;;;;;2.40;1.50;;;12.20;99.90;;;;;;5050857;28;20303;-59
2023/12/30 02:24:13;;;;;;;1.47;1.37;;;12.10;99.90;;;;;;5051308;28;20221;-60
2023/12/30 02:26:40;;;;;;;2.63;1.60;;;12.10;99.90;;;;;;5051410;28;20346;-59
2023/12/30 02:29:06;;;;;;;2.23;1.47;;;12.10;99.90;;;;;;5051287;28;20707;-59
2023/12/30 02:31:33;;;;;;;2.17;1.33;;;12.00;99.90;;;;;;5050879;28;20228;-60
2023/12/30 02:34:00;;;;;;;2.83;1.47;;;12.00;99.90;;;;;;5050923;28;20217;-59
2023/12/30 02:36:27;;;;;;;1.50;1.20;;;12.00;99.90;;;;;;5051097;28;20579;-59
2023/12/30 02:38:53;;;;;;;1.57;1.47;;;12.10;99.90;;;;;;5051133;28;20208;-61
2023/12/30 02:41:21;;;;;;;1.53;1.30;;;12.10;99.90;;;;;;5050759;28;20534;-59
2023/12/30 02:43:54;;;;;;;1.43;1.20;;;12.10;99.90;;;;;;5051068;28;20236;-59
2023/12/30 02:46:21;;;;;;;1.90;1.17;;;12.10;99.90;;;;;;5035353;28;20293;-59
2023/12/30 02:48:48;;;;;;;3.03;1.40;;;12.10;99.90;;;;;;5050878;28;20217;-59
2023/12/30 02:51:15;;;;;;;3.60;1.50;;;12.00;99.90;;;;;;5050567;28;20237;-58
2023/12/30 02:53:42;;;;;;;2.07;1.63;;;12.00;99.90;;;;;;5050878;28;20264;-59
2023/12/30 02:56:18;;;;;;;2.90;1.47;;;12.10;99.90;;;;;;5051198;28;20267;-59
2023/12/30 02:58:48;;;;;;;4.03;1.70;;;12.00;99.90;;;;;;5050945;28;20210;-59
2023/12/30 03:01:14;;;;;;;4.27;1.77;;;12.00;99.90;;;;;;5050422;28;20236;-59
2023/12/30 03:03:41;;;;;;;1.93;1.47;;;12.00;99.90;;;;;;5050803;28;20206;-59
2023/12/30 03:06:08;;;;;;;3.73;1.80;;;11.90;99.90;;;;;;5050886;28;20266;-60
2023/12/30 03:08:34;;;;;;;2.73;1.50;;;11.80;99.90;;;;;;5050820;28;20308;-59
2023/12/30 03:11:03;;;;;;;1.53;1.43;;;11.70;99.90;;;;;;5050442;28;20270;-59
2023/12/30 03:13:30;;;;;;;4.10;1.63;;;11.70;99.90;;;;;;5050631;28;20742;-59
2023/12/30 03:15:58;;;;;;;2.53;1.53;;;11.70;99.90;;;;;;5050470;28;20237;-59
2023/12/30 03:18:24;;;;;;;2.17;1.93;;;11.70;99.90;;;;;;5050802;28;20210;-58
2023/12/30 03:20:51;;;;;;;3.27;1.63;;;11.70;99.90;;;;;;5050701;28;20229;-59
2023/12/30 03:23:18;;;;;;;2.47;1.90;;;11.70;99.90;;;;;;5050319;28;20228;-60
2023/12/30 03:25:45;;;;;;;1.87;1.70;;;11.70;99.90;;;;;;5050523;28;20624;-58
2023/12/30 03:28:11;;;;;;;2.53;1.50;;;11.70;99.90;;;;;;5050378;28;20627;-58
2023/12/30 03:30:38;;;;;;;3.07;1.47;;;11.70;99.90;;;;;;5050336;28;20263;-58
2023/12/30 03:33:06;;;;;;;2.50;1.70;;;11.70;99.90;;;;;;5050409;28;20210;-58
2023/12/30 03:35:34;;;;;;;1.53;1.30;;;11.70;99.90;;;;;;5050730;28;20630;-58
2023/12/30 03:38:01;;;;;;;2.47;1.50;;;11.70;99.90;;;;;;5050388;28;20209;-59
2023/12/30 03:40:27;;;;;;;2.70;1.43;;;11.60;99.90;;;;;;5050465;28;20217;-58
2023/12/30 03:42:54;;;;;;;1.63;1.50;;;11.60;99.90;;;;;;5050465;28;20731;-58
2023/12/30 03:45:21;;;;;;;2.70;1.73;;;11.70;99.90;;;;;;5034263;28;20208;-59
2023/12/30 03:47:48;;;;;;;4.80;2.10;;;11.70;99.90;;;;;;5050529;28;20209;-59
2023/12/30 03:50:16;;;;;;;2.83;1.50;;;11.70;99.90;;;;;;5050065;28;20218;-59
2023/12/30 03:52:43;;;;;;;1.50;1.40;;;11.70;99.90;;;;;;5052561;28;20240;-60
2023/12/30 03:55:09;;;;;;;2.10;1.73;;;11.70;99.90;;;;;;5053987;28;20255;-59
2023/12/30 03:57:36;;;;;;;1.90;1.50;;;11.60;99.90;;;;;;5054242;28;20201;-59
2023/12/30 04:00:04;;;;;;;2.20;1.50;;;11.70;99.90;;;;;;5053941;28;20678;-60
2023/12/30 04:02:31;;;;;;;2.57;1.47;;;11.70;99.90;;;;;;5053752;28;20698;-59
2023/12/30 04:04:58;;;;;;;2.10;1.80;;;11.60;99.90;;;;;;5054069;28;20209;-58
2023/12/30 04:07:26;;;;;;;1.93;1.63;;;11.70;99.90;;;;;;5054000;28;20206;-59
2023/12/30 04:09:52;;;;;;;1.37;1.27;;;11.60;99.90;;;;;;5053876;28;20435;-58
2023/12/30 04:12:20;;;;;;;2.90;1.80;;;11.50;99.90;;;;;;5053539;28;20652;-59
2023/12/30 04:14:47;;;;;;;1.57;1.20;;;11.40;99.90;;;;;;5053745;28;20209;-59
2023/12/30 04:17:14;;;;;;;1.60;1.20;;;11.40;99.90;;;;;;5053709;28;20201;-60
2023/12/30 04:19:40;;;;;;;2.60;1.50;;;11.40;99.90;;;;;;5053716;28;20205;-59
2023/12/30 04:22:07;;;;;;;1.37;1.13;;;11.30;99.90;;;;;;5073105;22;20670;-54
2023/12/30 04:24:35;;;;;;;2.67;1.53;;;11.20;99.90;;;;;;5041775;28;20260;-52
2023/12/30 04:27:02;;;;;;;3.50;1.37;;;11.30;99.90;;;;;;5042649;28;20206;-53
2023/12/30 04:29:29;;;;;;;1.50;1.40;;;11.30;99.90;;;;;;5045073;28;20220;-52
2023/12/30 04:31:56;;;;;;;3.47;1.47;;;11.30;99.90;;;;;;5048325;28;20229;-53
2023/12/30 04:34:23;;;;;;;2.87;1.27;;;11.30;99.90;;;;;;5037322;28;20206;-53
2023/12/30 04:36:49;;;;;;;1.47;1.03;;;11.20;99.90;;;;;;5053357;28;20633;-53
2023/12/30 04:39:16;;;;;;;2.53;1.27;;;11.20;99.90;;;;;;5052969;28;20663;-53
2023/12/30 04:41:44;;;;;;;2.40;1.20;;;11.20;99.90;;;;;;5052684;28;20656;-53
2023/12/30 04:44:11;;;;;;;3.30;1.50;;;11.00;99.90;;;;;;5053081;28;20259;-53
2023/12/30 04:46:37;;;;;;;1.60;1.20;;;11.00;99.90;;;;;;5053160;28;20292;-53
2023/12/30 04:49:04;;;;;;;1.90;1.23;;;10.90;99.90;;;;;;5052778;28;20221;-54
2023/12/30 04:51:31;;;;;;;2.60;1.23;;;10.90;99.90;;;;;;5052766;28;20244;-53
2023/12/30 04:53:57;;;;;;;1.57;1.10;;;10.70;99.90;;;;;;5052711;28;20213;-53
2023/12/30 04:56:24;;;;;;;3.27;1.20;;;10.60;99.90;;;;;;5036990;28;20202;-54
2023/12/30 04:58:52;;;;;;;3.33;1.33;;;10.50;99.90;;;;;;5053095;28;20217;-53
2023/12/30 05:01:19;;;;;;;3.30;1.20;;;10.50;99.90;;;;;;5052476;28;20291;-54
2023/12/30 05:03:45;;;;;;;2.47;1.10;;;10.40;99.90;;;;;;5052624;28;20206;-52
2023/12/30 05:06:19;;;;;;;2.10;1.47;;;10.40;99.90;;;;;;5052441;28;20267;-53
2023/12/30 05:08:46;;;;;;;1.77;1.00;;;10.40;99.90;;;;;;5052718;28;20275;-53
2023/12/30 05:11:13;;;;;;;3.53;1.50;;;10.50;99.90;;;;;;5052520;28;20225;-53
2023/12/30 05:13:40;;;;;;;2.83;1.20;;;10.50;99.90;;;;;;5052491;28;20663;-53
2023/12/30 05:16:08;;;;;;;2.23;1.30;;;10.60;99.90;;;;;;5052443;28;20210;-54
2023/12/30 05:18:35;;;;;;;2.63;1.37;;;10.60;99.90;;;;;;5052473;28;20240;-55
2023/12/30 05:21:02;;;;;;;2.33;1.00;;;10.60;99.90;;;;;;5051977;28;20225;-58
2023/12/30 05:23:29;;;;;;;4.77;1.10;;;10.70;99.90;;;;;;5052391;28;20659;-53
2023/12/30 05:25:55;;;;;;;0.93;0.80;;;10.80;99.90;;;;;;5052589;28;20216;-53
2023/12/30 05:28:22;;;;;;;2.87;1.37;;;10.80;99.90;;;;;;5052116;28;20350;-53
2023/12/30 05:30:48;;;;;;;1.63;1.03;;;10.70;99.90;;;;;;5052550;28;20638;-55
2023/12/30 05:33:16;;;;;;;1.67;0.80;;;10.80;99.90;;;;;;5051825;28;20210;-51
2023/12/30 05:35:43;;;;;;;1.47;1.00;;;10.80;99.90;;;;;;5052520;28;20209;-53
2023/12/30 05:38:12;;;;;;;2.03;1.03;;;10.80;99.90;;;;;;5052331;28;20212;-53
2023/12/30 05:40:39;;;;;;;1.37;0.87;;;10.80;99.90;;;;;;5052288;28;20279;-53
2023/12/30 05:43:06;;;;;;;1.43;0.80;;;10.80;99.90;;;;;;5051923;28;20213;-54
2023/12/30 05:45:32;;;;;;;1.27;0.90;;;10.80;99.90;;;;;;5052015;28;20202;-53
2023/12/30 05:47:59;;;;;;;1.47;1.03;;;10.90;99.90;;;;;;5051779;28;20210;-55
2023/12/30 05:50:28;;;;;;;1.73;1.00;;;10.90;99.90;;;;;;5052252;28;20222;-53
2023/12/30 05:52:55;;;;;;;2.30;1.13;;;10.90;99.90;;;;;;5051721;28;20257;-53
2023/12/30 05:55:21;;;;;;;2.20;0.90;;;10.90;99.90;;;;;;5051730;28;20610;-54
2023/12/30 05:57:48;;;;;;;2.30;1.93;;;10.90;99.90;;;;;;5052275;28;20773;-53
2023/12/30 06:00:16;;;;;;;1.30;0.70;;;10.90;99.90;;;;;;5051784;28;20227;-55
2023/12/30 06:02:43;;;;;;;2.03;0.80;;;10.90;99.90;;;;;;5051415;28;20287;-53
2023/12/30 06:05:10;;;;;;;1.07;0.93;;;10.90;99.90;;;;;;5051699;28;20623;-53
2023/12/30 06:07:39;;;;;;;2.10;1.00;;;10.90;99.90;;;;;;5051980;28;20701;-53
2023/12/30 06:10:07;;;;;;;1.17;0.90;;;10.90;99.90;;;;;;5051674;28;20268;-53
2023/12/30 06:12:34;;;;;;;2.00;1.80;;;11.00;99.90;;;;;;5051306;28;20229;-55
2023/12/30 06:15:00;;;;;;;1.27;0.90;;;11.00;99.90;;;;;;5051051;28;20202;-54
2023/12/30 06:17:27;;;;;;;2.63;1.00;;;10.90;99.90;;;;;;5051725;28;20608;-53
2023/12/30 06:19:54;;;;;;;2.17;1.13;;;11.00;99.90;;;;;;5051265;28;20208;-53
2023/12/30 06:22:20;;;;;;;1.97;0.90;;;11.00;99.90;;;;;;5050947;28;20233;-53
2023/12/30 06:24:48;;;;;;;3.27;1.13;;;11.00;99.90;;;;;;5051304;28;20268;-53
2023/12/30 06:27:15;;;;;;;1.67;0.90;;;11.10;99.90;;;;;;5051743;28;20298;-53
2023/12/30 06:29:42;;;;;;;2.10;1.20;;;11.10;99.90;;;;;;5051033;28;20248;-55
2023/12/30 06:32:08;;;;;;;1.50;1.00;;;11.10;99.90;;;;;;5051247;28;20225;-53
2023/12/30 06:34:35;;;;;;;3.17;1.50;;;11.10;99.90;;;;;;5051496;28;20205;-54
2023/12/30 06:37:02;;;;;;;1.53;1.17;;;11.10;99.90;;;;;;5051451;28;20602;-55
2023/12/30 06:39:28;;;;;;;0.97;0.70;;;11.10;99.90;;;;;;5051053;28;20248;-54
2023/12/30 06:41:59;;;;;;;2.03;1.00;;;11.10;99.90;;;;;;5050795;28;20233;-54
2023/12/30 06:44:26;;;;;;;1.87;1.00;;;11.00;99.90;;;;;;5050931;28;20641;-53
2023/12/30 06:46:53;;;;;;;0.77;0.70;;;11.20;99.90;;;;;;5051240;28;20746;-54
2023/12/30 06:49:20;;;;;;;1.23;0.87;;;11.30;99.90;;;;;;5051204;28;20208;-53
2023/12/30 06:51:46;;;;;;;1.33;1.10;;;11.30;99.90;;;;;;5050722;28;20290;-54
2023/12/30 06:54:13;;;;;;;0.80;0.70;;;11.40;99.90;;;;;;5050786;28;20205;-54
2023/12/30 06:56:40;;;;;;;1.93;1.07;;;11.40;99.90;;;;;;5051033;28;20210;-53
2023/12/30 06:59:07;;;;;;;1.67;1.00;;;11.60;99.90;;;;;;5050813;28;20258;-55
2023/12/30 07:01:39;;;;;;;1.20;0.77;;;11.50;99.90;;;;;;5050676;28;20255;-55
2023/12/30 07:04:05;;;;;;;2.23;0.97;;;11.50;99.90;;;;;;5051489;28;20212;-54
2023/12/30 07:06:32;;;;;;;2.30;0.77;;;11.40;99.90;;;;;;5052607;28;20563;-53
2023/12/30 07:08:59;;;;;;;1.27;0.60;;;11.50;99.90;;;;;;5051114;28;20631;-54
2023/12/30 07:11:25;;;;;;;0.77;0.60;;;11.50;99.90;;;;;;5050690;28;20225;-54
2023/12/30 07:13:52;;;;;;;3.23;1.40;;;11.60;99.90;;;;;;5052142;28;20209;-53
2023/12/30 07:16:20;;;;;;;2.70;1.60;;;11.60;99.90;;;;;;5051766;28;20587;-55
2023/12/30 07:18:48;;;;;;;7.43;3.90;;;11.60;99.90;;;;;;5051556;28;20209;-53
2023/12/30 07:21:14;;;;;;;2.70;1.30;;;11.60;99.90;;;;;;5051193;28;20225;-54
2023/12/30 07:23:41;;;;;;;1.73;0.90;;;11.60;99.90;;;;;;5051041;28;20213;-54
2023/12/30 07:26:08;;;;;;;0.97;0.80;;;11.60;99.90;;;;;;5050435;28;20694;-52
2023/12/30 07:28:34;;;;;;;1.33;0.70;;;11.70;99.90;;;;;;5054997;28;20238;-52
2023/12/30 07:31:01;;;;;;;3.20;1.13;;;11.70;99.90;;;;;;5054820;28;20651;-53
2023/12/30 07:33:29;;;;;;;1.57;0.90;;;11.70;99.90;;;;;;5038407;28;20201;-53
2023/12/30 07:35:57;;;;;;;1.30;0.80;;;11.70;99.90;;;;;;5054608;28;20220;-54
2023/12/30 07:38:23;;;;;;;2.57;1.50;;;11.70;99.90;;;;;;5054371;28;20378;-54
2023/12/30 07:40:50;;;;;;;0.80;0.60;;;11.70;99.90;;;;;;5054295;28;20275;-54
2023/12/30 07:43:17;;;;;;;4.10;1.77;;;11.70;99.90;;;;;;5054235;28;20206;-54
2023/12/30 07:45:44;;;;;;;2.10;1.90;;;11.70;99.90;;;;;;5054580;28;20209;-54
2023/12/30 07:48:10;;;;;;;2.53;1.60;;;11.70;99.90;;;;;;5054567;28;20210;-53
2023/12/30 07:50:38;;;;;;;2.03;0.53;;;11.70;99.90;;;;;;5054201;28;20221;-53
2023/12/30 07:53:05;;;;;;;2.50;1.10;;;11.80;99.90;;;;;;5053968;28;20213;-53
2023/12/30 07:55:32;;;;;;;2.13;1.00;;;11.80;99.90;;;;;;5054576;28;20213;-53
2023/12/30 07:57:59;;;;;;;3.03;1.17;;;11.90;99.90;;;;;;5054245;28;20217;-52
2023/12/30 08:00:25;;;;;;;1.07;0.60;;;12.00;99.90;;;;;;5054403;28;20296;-53
2023/12/30 08:02:52;;;;;;;1.53;0.97;;;12.10;99.90;;;;;;5053863;28;20773;-54
2023/12/30 08:05:19;;;;;;;2.50;1.50;;;12.20;99.90;;;;;;5053893;28;20206;-54
2023/12/30 08:07:47;;;;;;;1.80;1.03;;;12.20;99.90;;;;;;5053765;28;20671;-53
2023/12/30 08:10:13;;;;;;;3.00;1.13;;;12.20;99.90;;;;;;5053807;28;20450;-53
2023/12/30 08:12:40;;;;;;;4.20;1.00;;;12.20;99.90;;;;;;5053949;28;20275;-53
2023/12/30 08:15:09;;;;;;;2.80;1.03;;;12.20;99.90;;;;;;5053724;28;20232;-53
2023/12/30 08:17:35;;;;;;;6.70;3.40;;;12.10;99.90;;;;;;5053599;28;20275;-53
2023/12/30 08:20:02;;;;;;;5.57;4.83;;;12.20;99.90;;;;;;5053535;28;20198;-53
2023/12/30 08:22:29;;;;;;;5.63;4.57;;;12.30;99.90;;;;;;5036973;28;20230;-53
2023/12/30 08:24:58;;;;;;;4.37;1.60;;;12.40;99.90;;;;;;5053823;28;20252;-55
2023/12/30 08:27:25;;;;;;;1.53;0.97;;;12.50;99.90;;;;;;5053894;28;20210;-53
2023/12/30 08:29:52;;;;;;;1.50;1.03;;;12.50;99.90;;;;;;5054415;28;20225;-53
2023/12/30 08:32:18;;;;;;;1.60;1.23;;;12.50;99.90;;;;;;5053286;28;20267;-53
2023/12/30 08:34:45;;;;;;;4.37;1.23;;;12.50;99.90;;;;;;5053795;28;20219;-53
2023/12/30 08:37:11;;;;;;;1.53;0.90;;;12.40;99.90;;;;;;5053079;28;20247;-52
2023/12/30 08:39:39;;;;;;;1.27;1.07;;;12.50;99.90;;;;;;5053191;28;20264;-55
2023/12/30 08:42:08;;;;;;;2.17;1.20;;;12.50;99.90;;;;;;5052904;28;20217;-53
2023/12/30 08:44:40;;;;;;;2.97;1.00;;;12.60;99.90;;;;;;5053024;28;20205;-54
2023/12/30 08:47:07;;;;;;;4.37;3.17;;;12.60;99.90;;;;;;5053050;28;20212;-54
2023/12/30 08:49:33;;;;;;;3.53;2.20;;;12.70;99.90;;;;;;5053122;28;20213;-52
2023/12/30 08:52:00;;;;;;;15.30;8.97;;;12.70;99.90;;;;;;5052527;28;20606;-53
2023/12/30 08:54:27;;;;;;;2.93;1.60;;;12.70;99.90;;;;;;5052815;28;20202;-53
2023/12/30 08:56:54;;;;;;;4.53;1.43;;;12.70;99.90;;;;;;5052744;28;20586;-53
2023/12/30 08:59:24;;;;;;;8.37;6.20;;;12.80;99.90;;;;;;5052995;28;20214;-53
2023/12/30 09:01:50;;;;;;;1.60;1.10;;;12.80;99.90;;;;;;5052482;28;20229;-52
2023/12/30 09:04:17;;;;;;;2.03;1.30;;;12.80;99.90;;;;;;5052982;28;20355;-55
2023/12/30 09:06:44;;;;;;;1.17;0.90;;;12.80;99.90;;;;;;5053219;28;20209;-52
2023/12/30 09:09:11;;;;;;;1.70;1.20;;;12.80;99.90;;;;;;5053038;28;20229;-56
2023/12/30 09:11:38;;;;;;;4.70;1.40;;;12.80;99.90;;;;;;5052442;28;20237;-53
2023/12/30 09:14:06;;;;;;;2.97;1.63;;;12.60;99.90;;;;;;5052539;28;20210;-54
2023/12/30 09:16:34;;;;;;;4.63;1.60;;;12.40;99.90;;;;;;5036770;28;20651;-52
2023/12/30 09:19:00;;;;;;;2.67;1.80;;;12.40;99.90;;;;;;5053226;28;20271;-52
2023/12/30 09:21:29;;;;;;;2.87;1.43;;;12.60;99.90;;;;;;5052567;28;20225;-52
2023/12/30 09:23:56;;;;;;;2.40;1.60;;;12.80;99.90;;;;;;5052370;28;20735;-52
2023/12/30 09:26:22;;;;;;;2.40;1.70;;;12.70;99.90;;;;;;5052277;28;20256;-57
2023/12/30 09:28:49;;;;;;;3.50;1.43;;;12.80;99.90;;;;;;5052461;28;20201;-58
2023/12/30 09:31:16;;;;;;;2.57;1.60;;;12.90;99.90;;;;;;5052262;28;20647;-59
2023/12/30 09:33:44;;;;;;;2.47;1.10;;;13.00;99.90;;;;;;5052478;28;20512;-53
2023/12/30 09:36:11;;;;;;;1.40;1.10;;;13.20;99.90;;;;;;5052283;28;20205;-53
2023/12/30 09:38:37;;;;;;;1.57;1.23;;;13.20;99.90;;;;;;5052415;28;20261;-53
2023/12/30 09:41:05;;;;;;;2.50;1.17;;;13.30;99.90;;;;;;5052226;28;20225;-54
2023/12/30 09:43:33;;;;;;;2.17;1.37;;;13.20;99.90;;;;;;5036539;28;20213;-55
2023/12/30 09:46:01;;;;;;;1.70;1.17;;;13.20;99.90;;;;;;5052134;28;20206;-54
2023/12/30 09:48:28;;;;;;;7.60;6.33;;;13.20;99.90;;;;;;5052244;28;20205;-56
2023/12/30 09:50:57;;;;;;;7.13;5.63;;;13.30;99.90;;;;;;5051129;28;20229;-54
2023/12/30 09:53:24;;;;;;;1.90;0.97;;;13.40;99.90;;;;;;5051501;28;20212;-54
2023/12/30 09:55:52;;;;;;;2.53;1.10;;;13.50;99.90;;;;;;5051970;28;20212;-53
2023/12/30 09:58:20;;;;;;;1.40;1.00;;;13.50;99.90;;;;;;5052483;28;20213;-54
2023/12/30 10:00:47;;;;;;;1.90;1.13;;;13.70;99.90;;;;;;5052396;28;20202;-54
2023/12/30 10:03:15;;;;;;;2.03;1.17;;;13.90;99.90;;;;;;5051759;28;20667;-56
2023/12/30 10:05:42;;;;;;;1.40;1.10;;;14.00;99.90;;;;;;5052320;28;20206;-55
2023/12/30 10:08:11;;;;;;;1.20;1.00;;;14.10;99.90;;;;;;5052089;28;20210;-54
2023/12/30 10:10:43;;;;;;;2.47;1.33;;;14.20;99.90;;;;;;5052255;28;20233;-53
2023/12/30 10:13:10;;;;;;;1.27;0.80;;;14.20;99.90;;;;;;5052342;28;20330;-52
2023/12/30 10:15:37;;;;;;;3.93;1.00;;;14.20;99.90;;;;;;5051856;28;20209;-53
2023/12/30 10:18:06;;;;;;;21.33;19.00;;;14.20;99.90;;;;;;5051802;28;20662;-52
2023/12/30 10:20:33;;;;;;;4.03;2.87;;;14.40;99.90;;;;;;5035077;28;20288;-54
2023/12/30 10:23:00;;;;;;;2.20;1.03;;;14.60;99.90;;;;;;5051651;28;20209;-53
2023/12/30 10:25:28;;;;;;;2.17;1.03;;;14.80;99.90;;;;;;5052831;28;20209;-54
2023/12/30 10:27:55;;;;;;;1.30;0.87;;;14.90;99.90;;;;;;5051640;28;20208;-53
2023/12/30 10:30:23;;;;;;;1.20;1.10;;;15.10;99.90;;;;;;5051176;28;20675;-56
2023/12/30 10:32:49;;;;;;;1.73;0.80;;;15.10;99.90;;;;;;5051213;28;20225;-55
2023/12/30 10:35:17;;;;;;;2.00;0.90;;;15.10;99.90;;;;;;5051220;28;20668;-55
2023/12/30 10:37:43;;;;;;;2.67;1.00;;;15.00;99.90;;;;;;5051286;28;20209;-54
2023/12/30 10:40:10;;;;;;;1.10;0.70;;;14.90;99.90;;;;;;5051431;28;20220;-54
2023/12/30 10:42:41;;;;;;;2.03;0.90;;;14.70;99.90;;;;;;5051432;28;20781;-54
2023/12/30 10:45:09;;;;;;;2.30;0.87;;;14.60;99.90;;;;;;5051257;28;20288;-57
2023/12/30 10:47:40;;;;;;;3.50;0.93;;;14.40;99.90;;;;;;5051598;28;20213;-55
2023/12/30 10:50:09;;;;;;;1.60;0.87;;;14.30;99.90;;;;;;5051447;28;20228;-55
2023/12/30 10:52:43;;;;;;;2.43;0.90;;;14.20;99.90;;;;;;5035480;28;20276;-55
2023/12/30 10:55:11;;;;;;;1.50;0.80;;;14.10;99.90;;;;;;5050846;28;20205;-56
2023/12/30 10:57:45;;;;;;;0.90;0.50;;;14.00;99.90;;;;;;5050756;28;20594;-57
2023/12/30 11:00:17;;;;;;;1.80;0.77;;;13.90;99.90;;;;;;5050699;28;20212;-57
2023/12/30 11:02:45;;;;;;;1.97;0.93;;;13.70;99.90;;;;;;5055101;28;20237;-57
2023/12/30 11:05:19;;;;;;;4.30;0.87;;;13.50;99.90;;;;;;5054889;28;20217;-55
2023/12/30 11:07:46;;;;;;;2.50;1.00;;;13.30;99.90;;;;;;5055317;28;20208;-56
2023/12/30 11:10:17;;;;;;;2.30;0.90;;;13.20;99.90;;;;;;5054747;28;20201;-57
2023/12/30 11:12:45;;;;;;;2.67;0.90;;;13.20;99.90;;;;;;5054614;28;20236;-57
2023/12/30 11:15:23;;;;;;;1.80;0.80;;;13.10;99.90;;;;;;5054635;28;20588;-55
2023/12/30 11:17:50;;;;;;;2.67;0.63;;;13.20;99.90;;;;;;5054984;28;20209;-57
2023/12/30 11:20:25;;;;;;;2.73;1.03;;;13.30;99.90;;;;;;5054600;28;20231;-57
2023/12/30 11:22:54;;;;;;;1.53;0.70;;;13.40;99.90;;;;;;5054288;28;20231;-56
2023/12/30 11:25:20;;;;;;;1.30;0.57;;;13.50;99.90;;;;;;5054295;28;20237;-57
2023/12/30 11:27:51;;;;;;;0.93;0.50;;;13.60;99.90;;;;;;5054729;28;20209;-57
2023/12/30 11:30:24;;;;;;;2.40;0.70;;;13.70;99.90;;;;;;5054813;28;20205;-57
2023/12/30 11:32:53;;;;;;;2.60;0.50;;;13.70;99.90;;;;;;5054446;28;20225;-56
2023/12/30 11:35:20;;;;;;;1.63;0.90;;;13.60;99.90;;;;;;5054354;28;20213;-56
2023/12/30 11:37:51;;;;;;;1.07;0.53;;;13.70;99.90;;;;;;5054389;28;20292;-56
2023/12/30 11:40:20;;;;;;;1.37;0.80;;;13.70;99.90;;;;;;5054440;28;20259;-56
2023/12/30 11:42:46;;;;;;;0.80;0.50;;;13.90;99.90;;;;;;5053892;28;20253;-56
2023/12/30 11:45:15;;;;;;;1.43;0.73;;;13.90;99.90;;;;;;5054009;28;20565;-56
2023/12/30 11:47:45;;;;;;;1.50;0.70;;;13.90;99.90;;;;;;5054575;28;20240;-53
2023/12/30 11:50:13;;;;;;;2.73;0.67;;;13.90;99.90;;;;;;5053869;28;20229;-57
2023/12/30 11:52:45;;;;;;;2.20;0.60;;;14.00;99.90;;;;;;5053626;28;20283;-57
2023/12/30 11:55:12;;;;;;;1.50;0.70;;;14.10;99.90;;;;;;5053892;28;20212;-56
2023/12/30 11:57:38;;;;;;;1.80;0.70;;;14.00;99.90;;;;;;5054089;28;20201;-56
2023/12/30 12:00:08;;;;;;;1.83;0.63;;;14.00;99.90;;;;;;5054016;28;20209;-56
2023/12/30 12:02:36;;;;;;;1.93;0.60;;;13.90;99.90;;;;;;5037347;28;20608;-56
2023/12/30 12:05:04;;;;;;;4.00;1.17;;;13.90;99.90;;;;;;5053879;28;20205;-56
2023/12/30 12:07:31;;;;;;;2.70;1.23;;;13.80;99.90;;;;;;5053921;28;20209;-56
2023/12/30 12:09:58;;;;;;;2.87;1.73;;;13.80;99.90;;;;;;5053945;28;20205;-57
2023/12/30 12:12:25;;;;;;;2.47;0.90;;;13.90;99.90;;;;;;5052477;28;20695;-56
2023/12/30 12:14:53;;;;;;;1.17;0.40;;;14.00;99.90;;;;;;5053713;28;20228;-55
2023/12/30 12:17:20;;;;;;;2.80;1.77;;;14.10;99.90;;;;;;5049921;28;20240;-55
2023/12/30 12:19:50;;;;;;;0.87;0.50;;;14.20;99.90;;;;;;5053373;28;20213;-55
2023/12/30 12:22:17;;;;;;;1.90;0.50;;;14.30;99.90;;;;;;5053207;28;20239;-59
2023/12/30 12:24:44;;;;;;;1.40;1.00;;;14.40;99.90;;;;;;5053407;28;20212;-58
2023/12/30 12:27:10;;;;;;;1.60;0.90;;;14.60;99.90;;;;;;5053557;28;20315;-59
2023/12/30 12:29:45;;;;;;;1.47;0.57;;;14.70;99.90;;;;;;5036905;28;20205;-58
2023/12/30 12:32:13;;;;;;;1.70;0.70;;;14.80;99.90;;;;;;5052580;28;20754;-60
2023/12/30 12:34:41;;;;;;;1.13;0.50;;;14.90;99.90;;;;;;5052949;28;20683;-58
2023/12/30 12:37:10;;;;;;;1.67;0.70;;;15.00;99.90;;;;;;5053445;28;20285;-58
2023/12/30 12:39:37;;;;;;;0.90;0.60;;;15.10;99.90;;;;;;5036982;28;20384;-57
2023/12/30 12:42:04;;;;;;;1.93;0.47;;;15.20;99.90;;;;;;5052642;28;20371;-58
2023/12/30 12:44:31;;;;;;;1.05;0.60;;;15.20;99.90;;;;;;5053046;28;20206;-57
2023/12/30 12:46:58;;;;;;;4.07;1.10;;;15.30;99.90;;;;;;5053241;28;20216;-58